Time;durP1;ratioP1;P1;durP2;ratioP2;P2;SDS_P1;SDS_P2;PMS_P1;PMS_P2;Temp;Humidity;BMP_temperature;BMP_pressure;BME280_temperature;BME280_humidity;BME280_pressure;Samples;Min_cycle;Max_cycle;Signal;HPM_P1;HPM_P2
2023/12/27 00:00:36;;;;;;;9.68;1.17;;;;;;;;;;5054147;28;20037;-83
2023/12/27 00:03:02;;;;;;;10.15;0.93;;;;;;;;;;5045960;28;20051;-85
2023/12/27 00:05:27;;;;;;;11.27;1.30;;;;;;;;;;5061024;28;20101;-85
2023/12/27 00:07:53;;;;;;;6.47;1.08;;;;;;;;;;5052615;28;20041;-83
2023/12/27 00:10:19;;;;;;;8.68;1.98;;;;;;;;;;5053819;28;20480;-83
2023/12/27 00:12:45;;;;;;;7.88;0.93;;;;;;;;;;5052751;28;20404;-82
2023/12/27 00:15:10;;;;;;;8.18;1.15;;;;;;;;;;5069364;28;20035;-83
2023/12/27 00:17:36;;;;;;;7.53;1.35;;;;;;;;;;5045157;28;20101;-82
2023/12/27 00:20:02;;;;;;;10.50;1.33;;;;;;;;;;5054698;28;20047;-82
2023/12/27 00:22:27;;;;;;;6.20;1.50;;;;;;;;;;5035710;28;20381;-83
2023/12/27 00:24:53;;;;;;;5.05;1.20;;;;;;;;;;5055990;28;20044;-83
2023/12/27 00:27:18;;;;;;;10.40;1.48;;;;;;;;;;5047535;28;20101;-83
2023/12/27 00:29:44;;;;;;;8.80;1.17;;;;;;;;;;5054151;28;20076;-82
2023/12/27 00:32:11;;;;;;;6.68;1.10;;;;;;;;;;5054573;28;20028;-81
2023/12/27 00:34:39;;;;;;;9.65;1.30;;;;;;;;;;5049926;28;20045;-83
2023/12/27 00:37:05;;;;;;;8.27;1.60;;;;;;;;;;5061504;28;20166;-83
2023/12/27 00:39:31;;;;;;;8.00;1.20;;;;;;;;;;5053913;28;20219;-82
2023/12/27 00:41:56;;;;;;;5.80;1.00;;;;;;;;;;5043059;28;20119;-83
2023/12/27 00:44:22;;;;;;;7.78;1.33;;;;;;;;;;5054075;28;20544;-83
2023/12/27 00:46:47;;;;;;;7.18;1.35;;;;;;;;;;5036567;28;20078;-83
2023/12/27 00:49:13;;;;;;;7.65;1.27;;;;;;;;;;5029156;28;20033;-84
2023/12/27 00:51:39;;;;;;;6.22;1.20;;;;;;;;;;5040193;28;20032;-83
2023/12/27 00:54:04;;;;;;;9.95;1.58;;;;;;;;;;5048452;28;20031;-83
2023/12/27 00:56:30;;;;;;;6.75;1.10;;;;;;;;;;5032522;28;20845;-83
2023/12/27 00:58:55;;;;;;;10.23;1.38;;;;;;;;;;5055040;28;20124;-85
2023/12/27 01:01:20;;;;;;;6.13;1.27;;;;;;;;;;5059574;28;20036;-83
2023/12/27 01:03:46;;;;;;;8.90;1.20;;;;;;;;;;5037901;28;20124;-83
2023/12/27 01:06:11;;;;;;;6.55;1.67;;;;;;;;;;5051731;28;20553;-81
2023/12/27 01:08:37;;;;;;;7.05;1.92;;;;;;;;;;5055152;28;20053;-83
2023/12/27 01:11:03;;;;;;;7.28;1.60;;;;;;;;;;5054257;28;20033;-87
2023/12/27 01:13:28;;;;;;;5.55;1.08;;;;;;;;;;5040071;28;20519;-85
2023/12/27 01:15:54;;;;;;;10.98;1.42;;;;;;;;;;5035952;28;20512;-85
2023/12/27 01:18:20;;;;;;;7.40;1.27;;;;;;;;;;5052828;28;20037;-81
2023/12/27 01:20:46;;;;;;;8.60;1.80;;;;;;;;;;5053159;28;20037;-85
2023/12/27 01:23:15;;;;;;;10.75;1.50;;;;;;;;;;5057137;28;20057;-83
2023/12/27 01:25:40;;;;;;;7.85;0.93;;;;;;;;;;5036734;28;20049;-84
2023/12/27 01:28:06;;;;;;;5.13;1.33;;;;;;;;;;5056274;28;20036;-87
2023/12/27 01:30:31;;;;;;;10.82;1.45;;;;;;;;;;5053103;28;20206;-86
2023/12/27 01:32:57;;;;;;;9.43;1.20;;;;;;;;;;5054177;28;20037;-86
2023/12/27 01:35:23;;;;;;;4.50;1.10;;;;;;;;;;5039201;28;20036;-85
2023/12/27 01:37:48;;;;;;;9.75;1.20;;;;;;;;;;5042510;28;20044;-83
2023/12/27 01:40:15;;;;;;;7.95;1.45;;;;;;;;;;5070394;28;20534;-86
2023/12/27 01:42:40;;;;;;;8.73;1.80;;;;;;;;;;5056998;28;20132;-83
2023/12/27 01:45:09;;;;;;;10.27;1.42;;;;;;;;;;5062392;28;20444;-83
2023/12/27 01:47:37;;;;;;;6.47;1.30;;;;;;;;;;5040343;28;20448;-82
2023/12/27 01:50:12;;;;;;;8.02;1.35;;;;;;;;;;5065390;28;20048;-84
2023/12/27 01:52:44;;;;;;;14.00;1.40;;;;;;;;;;5056541;28;20521;-84
2023/12/27 01:55:11;;;;;;;9.00;1.45;;;;;;;;;;5046340;28;20483;-84
2023/12/27 01:57:40;;;;;;;8.55;1.80;;;;;;;;;;5057287;28;20593;-84
2023/12/27 02:00:07;;;;;;;9.52;1.42;;;;;;;;;;5061004;28;20037;-84
2023/12/27 02:02:33;;;;;;;4.88;1.27;;;;;;;;;;5045776;28;20222;-84
2023/12/27 02:05:01;;;;;;;8.30;1.23;;;;;;;;;;5052144;28;20492;-85
2023/12/27 02:07:26;;;;;;;8.35;1.38;;;;;;;;;;5045119;28;20894;-83
2023/12/27 02:09:59;;;;;;;8.68;1.85;;;;;;;;;;5060859;28;20033;-84
2023/12/27 02:12:29;;;;;;;7.63;1.27;;;;;;;;;;5046864;28;20072;-84
2023/12/27 02:14:55;;;;;;;10.65;1.45;;;;;;;;;;5058950;28;20496;-83
2023/12/27 02:17:21;;;;;;;8.13;1.33;;;;;;;;;;5056196;28;20043;-83
2023/12/27 02:19:46;;;;;;;8.93;1.25;;;;;;;;;;5047940;28;20033;-84
2023/12/27 02:22:17;;;;;;;11.10;1.60;;;;;;;;;;5056090;28;20841;-83
2023/12/27 02:24:45;;;;;;;9.25;1.65;;;;;;;;;;5052102;28;20047;-83
2023/12/27 02:27:10;;;;;;;10.07;1.48;;;;;;;;;;5048539;28;20583;-84
2023/12/27 02:29:36;;;;;;;7.53;1.10;;;;;;;;;;5045192;28;20029;-81
2023/12/27 02:32:02;;;;;;;7.72;1.25;;;;;;;;;;5054696;28;20048;-83
2023/12/27 02:34:28;;;;;;;10.38;1.60;;;;;;;;;;5043022;28;20237;-84
2023/12/27 02:36:53;;;;;;;7.45;1.33;;;;;;;;;;5042562;28;20060;-83
2023/12/27 02:39:18;;;;;;;8.05;1.45;;;;;;;;;;5056410;28;20079;-83
2023/12/27 02:41:43;;;;;;;10.57;1.15;;;;;;;;;;5055460;28;20040;-85
2023/12/27 02:44:09;;;;;;;9.25;1.35;;;;;;;;;;5072105;28;20081;-84
2023/12/27 02:46:34;;;;;;;9.70;1.48;;;;;;;;;;5058006;28;20047;-83
2023/12/27 02:49:00;;;;;;;10.55;1.50;;;;;;;;;;5055419;28;20041;-83
2023/12/27 02:51:25;;;;;;;6.75;1.25;;;;;;;;;;5044775;28;20040;-85
2023/12/27 02:53:51;;;;;;;11.38;1.40;;;;;;;;;;5040867;28;20126;-83
2023/12/27 02:56:16;;;;;;;6.03;1.20;;;;;;;;;;5063341;28;20036;-81
2023/12/27 02:58:44;;;;;;;5.63;1.30;;;;;;;;;;5059780;28;20082;-80
2023/12/27 03:01:09;;;;;;;10.10;1.50;;;;;;;;;;5043472;28;20519;-84
2023/12/27 03:03:35;;;;;;;9.00;1.83;;;;;;;;;;5041703;28;20044;-84
2023/12/27 03:06:00;;;;;;;11.18;1.20;;;;;;;;;;5054312;28;20036;-84
2023/12/27 03:08:25;;;;;;;7.47;1.27;;;;;;;;;;5073111;28;20044;-84
2023/12/27 03:10:51;;;;;;;10.55;1.40;;;;;;;;;;5057608;28;20037;-85
2023/12/27 03:13:18;;;;;;;6.07;1.23;;;;;;;;;;5063359;28;20076;-84
2023/12/27 03:15:44;;;;;;;;;;;;;;;;;;5047456;28;20048;-84
2023/12/27 03:18:09;;;;;;;8.13;1.30;;;;;;;;;;5055505;28;19916;-84
2023/12/27 03:20:34;;;;;;;8.85;1.55;;;;;;;;;;5057398;28;20045;-85
2023/12/27 03:23:00;;;;;;;11.10;1.63;;;;;;;;;;5051833;28;20118;-83
2023/12/27 03:25:25;;;;;;;9.50;1.35;;;;;;;;;;5056973;28;20033;-84
2023/12/27 03:27:58;;;;;;;9.10;1.10;;;;;;;;;;5055858;28;20032;-83
2023/12/27 03:30:23;;;;;;;9.88;1.63;;;;;;;;;;5046285;28;20027;-83
2023/12/27 03:32:49;;;;;;;9.23;1.73;;;;;;;;;;5069512;28;20491;-83
2023/12/27 03:35:17;;;;;;;6.30;1.15;;;;;;;;;;5042110;28;20379;-84
2023/12/27 03:37:45;;;;;;;9.02;1.10;;;;;;;;;;5051684;28;20495;-84
2023/12/27 03:40:10;;;;;;;12.73;1.27;;;;;;;;;;5053117;28;20095;-84
2023/12/27 03:42:36;;;;;;;6.43;1.08;;;;;;;;;;5054720;28;20106;-84
2023/12/27 03:45:01;;;;;;;11.25;1.40;;;;;;;;;;5057126;28;20447;-83
2023/12/27 03:47:26;;;;;;;8.38;1.58;;;;;;;;;;5057064;28;20606;-84
2023/12/27 03:49:52;;;;;;;12.10;1.60;;;;;;;;;;5060057;28;20039;-84
2023/12/27 03:52:17;;;;;;;7.22;1.30;;;;;;;;;;5034387;28;20028;-85
2023/12/27 03:54:43;;;;;;;11.52;1.65;;;;;;;;;;5047469;28;20049;-84
2023/12/27 03:57:08;;;;;;;10.88;1.58;;;;;;;;;;5055123;28;20061;-85
2023/12/27 03:59:40;;;;;;;8.82;1.50;;;;;;;;;;5060390;28;20044;-85
2023/12/27 04:02:06;;;;;;;8.57;1.02;;;;;;;;;;5052570;28;20060;-84
2023/12/27 04:04:31;;;;;;;7.78;1.45;;;;;;;;;;5046605;28;20107;-86
2023/12/27 04:07:00;;;;;;;12.27;1.75;;;;;;;;;;5054596;28;20037;-84
2023/12/27 04:09:25;;;;;;;7.95;1.13;;;;;;;;;;5040835;28;20078;-83
2023/12/27 04:11:51;;;;;;;10.70;1.48;;;;;;;;;;5055471;28;20033;-83
2023/12/27 04:14:17;;;;;;;12.90;1.95;;;;;;;;;;5053938;28;20396;-84
2023/12/27 04:16:46;;;;;;;10.05;1.30;;;;;;;;;;5023350;28;20500;-83
2023/12/27 04:19:11;;;;;;;9.45;1.77;;;;;;;;;;5054657;28;20037;-83
2023/12/27 04:21:37;;;;;;;8.18;1.40;;;;;;;;;;5070273;28;20190;-83
2023/12/27 04:24:02;;;;;;;10.48;1.75;;;;;;;;;;5054765;28;20037;-84
2023/12/27 04:26:28;;;;;;;6.40;1.30;;;;;;;;;;5053531;28;20033;-84
2023/12/27 04:28:53;;;;;;;7.43;1.02;;;;;;;;;;5053929;28;20053;-84
2023/12/27 04:31:21;;;;;;;8.95;1.52;;;;;;;;;;5054877;28;20370;-83
2023/12/27 04:33:47;;;;;;;6.55;1.30;;;;;;;;;;5045560;28;20043;-82
2023/12/27 04:36:12;;;;;;;9.57;1.38;;;;;;;;;;5050581;28;20518;-84
2023/12/27 04:38:37;;;;;;;9.30;1.35;;;;;;;;;;5056160;28;20558;-84
2023/12/27 04:41:07;;;;;;;9.90;1.45;;;;;;;;;;5052975;28;20124;-85
2023/12/27 04:43:32;;;;;;;9.25;1.52;;;;;;;;;;5053954;28;20041;-84
2023/12/27 04:45:58;;;;;;;10.02;1.35;;;;;;;;;;5044916;28;20460;-83
2023/12/27 04:48:25;;;;;;;7.63;1.40;;;;;;;;;;5051018;28;20456;-81
2023/12/27 04:50:51;;;;;;;;;;;;;;;;;;5036970;28;20086;-83
2023/12/27 04:53:21;;;;;;;7.95;1.30;;;;;;;;;;5043891;28;19920;-83
2023/12/27 04:55:50;;;;;;;12.02;1.25;;;;;;;;;;5053880;28;20434;-83
2023/12/27 04:58:16;;;;;;;8.00;1.30;;;;;;;;;;5052752;28;20036;-83
2023/12/27 05:00:41;;;;;;;10.50;1.30;;;;;;;;;;5058320;28;20464;-83
2023/12/27 05:03:09;;;;;;;10.15;1.20;;;;;;;;;;5037042;28;20029;-82
2023/12/27 05:05:40;;;;;;;10.50;1.60;;;;;;;;;;5045294;28;20051;-84
2023/12/27 05:08:06;;;;;;;10.23;1.63;;;;;;;;;;5039600;28;20396;-84
2023/12/27 05:10:31;;;;;;;11.05;1.50;;;;;;;;;;5062918;28;20049;-83
2023/12/27 05:12:57;;;;;;;9.30;1.52;;;;;;;;;;5067550;28;20048;-84
2023/12/27 05:15:42;;;;;;;12.27;2.22;;;;;;;;;;5054192;28;20111;-85
2023/12/27 05:18:08;;;;;;;15.18;1.40;;;;;;;;;;5043286;28;20041;-85
2023/12/27 05:20:33;;;;;;;12.35;1.85;;;;;;;;;;5025585;28;20519;-84
2023/12/27 05:22:58;;;;;;;14.30;1.70;;;;;;;;;;5042138;28;20048;-85
2023/12/27 05:25:23;;;;;;;6.55;1.02;;;;;;;;;;5013800;28;20187;-85
2023/12/27 05:27:49;;;;;;;11.50;1.63;;;;;;;;;;5035082;28;20063;-83
2023/12/27 05:30:14;;;;;;;7.00;1.20;;;;;;;;;;5025686;28;20143;-84
2023/12/27 05:32:40;;;;;;;9.77;1.35;;;;;;;;;;5042480;28;20128;-84
2023/12/27 05:35:06;;;;;;;9.02;1.48;;;;;;;;;;5043261;28;20044;-84
2023/12/27 05:37:31;;;;;;;7.65;1.30;;;;;;;;;;5016877;28;20111;-84
2023/12/27 05:39:56;;;;;;;9.27;1.08;;;;;;;;;;5043442;28;20485;-84
2023/12/27 05:42:23;;;;;;;9.57;1.58;;;;;;;;;;5024982;28;20124;-84
2023/12/27 05:44:48;;;;;;;8.77;1.50;;;;;;;;;;5025844;28;20083;-84
2023/12/27 05:47:14;;;;;;;9.32;1.60;;;;;;;;;;4990988;28;20049;-84
2023/12/27 05:49:39;;;;;;;11.60;1.65;;;;;;;;;;5018837;28;20090;-83
2023/12/27 05:52:11;;;;;;;6.88;1.63;;;;;;;;;;4998251;28;20092;-83
2023/12/27 05:54:36;;;;;;;6.05;1.10;;;;;;;;;;5025119;28;20602;-83
2023/12/27 05:57:03;;;;;;;6.47;1.25;;;;;;;;;;5050649;28;20111;-83
2023/12/27 05:59:28;;;;;;;3.95;1.23;;;;;;;;;;5044299;28;20048;-83
2023/12/27 06:01:54;;;;;;;10.60;1.70;;;;;;;;;;5054434;28;20171;-83
2023/12/27 06:04:21;;;;;;;8.70;1.25;;;;;;;;;;5045885;28;20043;-84
2023/12/27 06:06:53;;;;;;;9.23;1.33;;;;;;;;;;5050324;28;20041;-83
2023/12/27 06:09:20;;;;;;;9.13;1.35;;;;;;;;;;5036511;28;20037;-83
2023/12/27 06:11:46;;;;;;;8.90;1.80;;;;;;;;;;5056523;28;20035;-83
2023/12/27 06:14:12;;;;;;;10.27;1.55;;;;;;;;;;5056227;28;20033;-84
2023/12/27 06:16:37;;;;;;;11.48;1.50;;;;;;;;;;5051338;28;20063;-83
2023/12/27 06:19:03;;;;;;;12.07;1.55;;;;;;;;;;5054274;28;20040;-83
2023/12/27 06:21:29;;;;;;;13.43;1.83;;;;;;;;;;5041519;28;20171;-84
2023/12/27 06:23:57;;;;;;;11.35;1.73;;;;;;;;;;5053343;28;20041;-84
2023/12/27 06:26:22;;;;;;;10.82;1.40;;;;;;;;;;5070071;28;20028;-84
2023/12/27 06:28:47;;;;;;;8.85;1.38;;;;;;;;;;5051852;28;20376;-84
2023/12/27 06:31:13;;;;;;;7.28;1.25;;;;;;;;;;5052886;28;20119;-83
2023/12/27 06:33:39;;;;;;;10.65;1.48;;;;;;;;;;5054373;28;20041;-84
2023/12/27 06:36:05;;;;;;;8.70;1.42;;;;;;;;;;5065168;28;20037;-85
2023/12/27 06:38:33;;;;;;;7.63;1.40;;;;;;;;;;5046325;28;20392;-84
2023/12/27 06:41:00;;;;;;;8.25;1.65;;;;;;;;;;5037654;28;20435;-84
2023/12/27 06:43:26;;;;;;;10.48;1.60;;;;;;;;;;5063444;28;20037;-84
2023/12/27 06:45:52;;;;;;;10.85;1.40;;;;;;;;;;5054669;28;20035;-83
2023/12/27 06:48:17;;;;;;;11.57;1.60;;;;;;;;;;5047727;28;20037;-83
2023/12/27 06:50:47;;;;;;;10.50;1.95;;;;;;;;;;5058062;28;20209;-83
2023/12/27 06:53:13;;;;;;;8.52;1.52;;;;;;;;;;5059306;28;20032;-85
2023/12/27 06:55:38;;;;;;;10.95;1.65;;;;;;;;;;5046429;28;20041;-85
2023/12/27 06:58:04;;;;;;;7.00;1.42;;;;;;;;;;5059993;28;20033;-82
2023/12/27 07:00:29;;;;;;;12.57;1.55;;;;;;;;;;5056216;28;20129;-84
2023/12/27 07:02:55;;;;;;;9.80;1.60;;;;;;;;;;5052775;28;20029;-84
2023/12/27 07:05:20;;;;;;;10.75;1.52;;;;;;;;;;5054075;28;20056;-84
2023/12/27 07:07:49;;;;;;;11.25;1.70;;;;;;;;;;5038251;28;20067;-84
2023/12/27 07:10:14;;;;;;;11.00;1.80;;;;;;;;;;5042772;28;20213;-84
2023/12/27 07:12:40;;;;;;;7.80;1.88;;;;;;;;;;5043670;28;20108;-85
2023/12/27 07:15:07;;;;;;;8.38;1.85;;;;;;;;;;5056366;28;20041;-82
2023/12/27 07:17:33;;;;;;;8.60;1.50;;;;;;;;;;5054276;28;20090;-83
2023/12/27 07:19:59;;;;;;;13.60;1.77;;;;;;;;;;5060609;28;20037;-82
2023/12/27 07:22:24;;;;;;;8.98;1.73;;;;;;;;;;5046425;28;20508;-84
2023/12/27 07:24:50;;;;;;;9.20;1.70;;;;;;;;;;5058646;28;20045;-84
2023/12/27 07:27:16;;;;;;;8.93;1.60;;;;;;;;;;5056682;28;20037;-84
2023/12/27 07:29:41;;;;;;;10.27;1.58;;;;;;;;;;5062225;28;20045;-85
2023/12/27 07:32:06;;;;;;;13.65;2.17;;;;;;;;;;5057499;28;20518;-84
2023/12/27 07:34:34;;;;;;;8.35;1.35;;;;;;;;;;5056600;28;20041;-83
2023/12/27 07:36:59;;;;;;;;;;;;;;;;;;5057120;28;20119;-83
2023/12/27 07:39:25;;;;;;;12.30;1.85;;;;;;;;;;5054807;28;20004;-84
2023/12/27 07:41:50;;;;;;;9.82;1.63;;;;;;;;;;5063561;28;20037;-83
2023/12/27 07:44:16;;;;;;;10.57;1.45;;;;;;;;;;5065013;28;20441;-83
2023/12/27 07:46:47;;;;;;;10.13;1.70;;;;;;;;;;5053206;28;20048;-83
2023/12/27 07:49:12;;;;;;;11.48;1.58;;;;;;;;;;5056950;28;20037;-83
2023/12/27 07:51:38;;;;;;;11.50;1.80;;;;;;;;;;5046724;28;20672;-84
2023/12/27 07:54:03;;;;;;;7.35;1.85;;;;;;;;;;5044797;28;20140;-83
2023/12/27 07:56:38;;;;;;;12.77;2.00;;;;;;;;;;5037695;28;20032;-83
2023/12/27 07:59:04;;;;;;;11.52;1.90;;;;;;;;;;5044251;28;20049;-84
2023/12/27 08:01:35;;;;;;;9.95;1.80;;;;;;;;;;5054515;28;20584;-83
2023/12/27 08:04:03;;;;;;;6.78;1.65;;;;;;;;;;5055203;28;20475;-84
2023/12/27 08:06:37;;;;;;;10.75;1.75;;;;;;;;;;5037870;28;20484;-83
2023/12/27 08:09:26;;;;;;;8.85;1.58;;;;;;;;;;5072209;28;20040;-84
2023/12/27 08:11:51;;;;;;;10.10;2.30;;;;;;;;;;5034793;28;20046;-83
2023/12/27 08:14:17;;;;;;;10.27;1.75;;;;;;;;;;5016968;28;20255;-83
2023/12/27 08:16:42;;;;;;;6.57;1.70;;;;;;;;;;5045472;28;20160;-80
2023/12/27 08:19:07;;;;;;;8.90;1.85;;;;;;;;;;5044845;28;20150;-83
2023/12/27 08:21:33;;;;;;;11.25;2.58;;;;;;;;;;5018585;28;20044;-83
2023/12/27 08:23:58;;;;;;;9.93;1.90;;;;;;;;;;5035730;28;20041;-84
2023/12/27 08:26:24;;;;;;;8.35;1.73;;;;;;;;;;5014221;28;20151;-83
2023/12/27 08:28:50;;;;;;;6.65;1.60;;;;;;;;;;5001764;28;20045;-83
2023/12/27 08:31:15;;;;;;;8.73;1.60;;;;;;;;;;5025910;28;20500;-83
2023/12/27 08:33:48;;;;;;;10.40;2.17;;;;;;;;;;5027865;28;20048;-85
2023/12/27 08:36:17;;;;;;;9.43;1.80;;;;;;;;;;5026296;28;20024;-83
2023/12/27 08:38:42;;;;;;;10.32;1.73;;;;;;;;;;5006194;28;20171;-82
2023/12/27 08:41:10;;;;;;;9.00;1.80;;;;;;;;;;5016104;28;20521;-84
2023/12/27 08:43:37;;;;;;;;;;;;;;;;;;5047446;28;20040;-84
2023/12/27 08:46:09;;;;;;;10.77;2.00;;;;;;;;;;5021990;28;20022;-82
2023/12/27 08:48:34;;;;;;;12.57;1.80;;;;;;;;;;5034226;28;20128;-84
2023/12/27 08:50:59;;;;;;;9.00;1.75;;;;;;;;;;5068229;28;20606;-83
2023/12/27 08:53:27;;;;;;;11.63;2.25;;;;;;;;;;5052682;28;20036;-84
2023/12/27 08:55:53;;;;;;;11.52;2.10;;;;;;;;;;5067733;28;20550;-85
2023/12/27 08:58:18;;;;;;;12.30;2.08;;;;;;;;;;5054183;28;20033;-85
2023/12/27 09:00:43;;;;;;;10.55;1.83;;;;;;;;;;5045646;28;20091;-85
2023/12/27 09:03:11;;;;;;;11.07;2.78;;;;;;;;;;5054722;28;20110;-86
2023/12/27 09:05:37;;;;;;;12.60;2.10;;;;;;;;;;5037889;28;20075;-85
2023/12/27 09:08:03;;;;;;;11.68;2.50;;;;;;;;;;5052028;28;20064;-85
2023/12/27 09:10:28;;;;;;;9.63;1.73;;;;;;;;;;5051144;28;20033;-84
2023/12/27 09:12:53;;;;;;;6.65;1.67;;;;;;;;;;5052423;28;20040;-83
2023/12/27 09:15:19;;;;;;;11.18;1.90;;;;;;;;;;5063037;28;20068;-85
2023/12/27 09:17:44;;;;;;;11.52;1.90;;;;;;;;;;5035357;28;20112;-85
2023/12/27 09:20:12;;;;;;;9.77;2.00;;;;;;;;;;5046935;28;20045;-85
2023/12/27 09:22:38;;;;;;;11.00;2.55;;;;;;;;;;5040361;28;20040;-84
2023/12/27 09:25:03;;;;;;;9.93;2.03;;;;;;;;;;5041288;28;20033;-84
2023/12/27 09:27:29;;;;;;;10.15;1.67;;;;;;;;;;5043050;28;20037;-82
2023/12/27 09:29:55;;;;;;;9.45;1.30;;;;;;;;;;5060233;28;20032;-83
2023/12/27 09:32:20;;;;;;;10.40;1.80;;;;;;;;;;5054391;28;20029;-84
2023/12/27 09:34:45;;;;;;;10.10;1.55;;;;;;;;;;5043257;28;20091;-84
2023/12/27 09:37:11;;;;;;;10.25;2.20;;;;;;;;;;5057654;28;20040;-84
2023/12/27 09:39:45;;;;;;;8.65;1.92;;;;;;;;;;5055151;28;20041;-84
2023/12/27 09:42:12;;;;;;;10.75;1.95;;;;;;;;;;5060511;28;20024;-84
2023/12/27 09:44:38;;;;;;;12.05;1.55;;;;;;;;;;5040669;28;20044;-84
2023/12/27 09:47:09;;;;;;;7.15;1.08;;;;;;;;;;5053309;28;20072;-84
2023/12/27 09:49:35;;;;;;;6.82;1.40;;;;;;;;;;5044601;28;20117;-81
2023/12/27 09:52:02;;;;;;;10.55;2.00;;;;;;;;;;5051869;28;20037;-81
2023/12/27 09:54:28;;;;;;;5.85;1.63;;;;;;;;;;5061089;28;20465;-82
2023/12/27 09:56:56;;;;;;;11.52;1.92;;;;;;;;;;5043694;28;20029;-82
2023/12/27 09:59:29;;;;;;;8.43;1.92;;;;;;;;;;5045765;28;20089;-82
2023/12/27 10:02:01;;;;;;;8.25;1.80;;;;;;;;;;5043655;28;20036;-80
2023/12/27 10:04:40;;;;;;;7.88;1.50;;;;;;;;;;5045073;28;20038;-80
2023/12/27 10:07:05;;;;;;;9.27;1.80;;;;;;;;;;5050430;28;20029;-81
2023/12/27 10:09:33;;;;;;;7.40;1.67;;;;;;;;;;5055060;28;20044;-81
2023/12/27 10:11:58;;;;;;;;;;;;;;;;;;5057966;28;20061;-82
2023/12/27 10:14:24;;;;;;;10.43;1.88;;;;;;;;;;5054514;28;20027;-81
2023/12/27 10:16:50;;;;;;;10.70;1.60;;;;;;;;;;5049829;28;20051;-81
2023/12/27 10:19:43;;;;;;;8.45;1.50;;;;;;;;;;5059123;28;20036;-81
2023/12/27 10:22:09;;;;;;;10.93;1.90;;;;;;;;;;5054274;28;20124;-81
2023/12/27 10:24:35;;;;;;;10.95;2.03;;;;;;;;;;5042092;28;20048;-79
2023/12/27 10:27:04;;;;;;;14.00;1.63;;;;;;;;;;5057578;28;20037;-80
2023/12/27 10:29:32;;;;;;;9.23;1.60;;;;;;;;;;5057212;28;20401;-79
2023/12/27 10:31:59;;;;;;;9.57;2.25;;;;;;;;;;5054169;28;20059;-80
2023/12/27 10:34:26;;;;;;;11.05;1.85;;;;;;;;;;5055190;28;20058;-79
2023/12/27 10:36:52;;;;;;;6.72;1.85;;;;;;;;;;5033132;28;20769;-81
2023/12/27 10:39:18;;;;;;;10.40;2.10;;;;;;;;;;5058207;28;20116;-79
2023/12/27 10:41:44;;;;;;;10.57;2.45;;;;;;;;;;5037725;28;20599;-82
2023/12/27 10:44:11;;;;;;;6.25;1.50;;;;;;;;;;5050040;28;20147;-79
2023/12/27 10:46:38;;;;;;;10.50;2.03;;;;;;;;;;5040044;28;20442;-81
2023/12/27 10:49:04;;;;;;;9.07;2.03;;;;;;;;;;5050881;28;20046;-80
2023/12/27 10:51:30;;;;;;;6.72;1.50;;;;;;;;;;5045781;28;20116;-81
2023/12/27 10:54:00;;;;;;;8.90;1.42;;;;;;;;;;5060677;28;20439;-83
2023/12/27 10:56:26;;;;;;;6.22;1.67;;;;;;;;;;5044601;28;20380;-84
2023/12/27 10:58:52;;;;;;;10.05;1.80;;;;;;;;;;5054968;28;20033;-85
2023/12/27 11:01:18;;;;;;;11.40;1.83;;;;;;;;;;5057299;28;20055;-83
2023/12/27 11:03:46;;;;;;;5.90;1.30;;;;;;;;;;5055536;28;20036;-82
2023/12/27 11:06:13;;;;;;;6.70;1.58;;;;;;;;;;5054337;28;20033;-83
2023/12/27 11:08:39;;;;;;;7.38;1.88;;;;;;;;;;5053146;28;20570;-84
2023/12/27 11:11:05;;;;;;;10.52;1.60;;;;;;;;;;5043123;28;20040;-82
2023/12/27 11:13:31;;;;;;;11.38;1.88;;;;;;;;;;5050777;28;20475;-84
2023/12/27 11:15:57;;;;;;;7.20;1.48;;;;;;;;;;5038596;28;20063;-82
2023/12/27 11:18:27;;;;;;;8.50;1.52;;;;;;;;;;5037549;28;20563;-84
2023/12/27 11:20:54;;;;;;;10.18;1.67;;;;;;;;;;5051067;28;20052;-83
2023/12/27 11:23:22;;;;;;;9.00;1.85;;;;;;;;;;5050663;28;20090;-82
2023/12/27 11:25:48;;;;;;;9.75;1.58;;;;;;;;;;5056103;28;20158;-85
2023/12/27 11:28:13;;;;;;;8.10;1.40;;;;;;;;;;5056446;28;20261;-82
2023/12/27 11:30:39;;;;;;;6.38;1.42;;;;;;;;;;5054535;28;20094;-85
2023/12/27 11:33:04;;;;;;;6.53;1.50;;;;;;;;;;5043669;28;20033;-84
2023/12/27 11:35:34;;;;;;;12.23;1.70;;;;;;;;;;5064107;28;20037;-84
2023/12/27 11:38:20;;;;;;;10.25;1.73;;;;;;;;;;5053498;28;20040;-83
2023/12/27 11:41:03;;;;;;;7.70;1.60;;;;;;;;;;5050399;28;20584;-82
2023/12/27 11:43:52;;;;;;;9.25;1.60;;;;;;;;;;5043412;28;20032;-84
2023/12/27 11:46:26;;;;;;;10.20;1.70;;;;;;;;;;5049144;28;20032;-83
2023/12/27 11:48:54;;;;;;;9.60;1.70;;;;;;;;;;5030586;28;20562;-85
2023/12/27 11:51:48;;;;;;;10.35;1.42;;;;;;;;;;5041483;28;20060;-82
2023/12/27 11:54:25;;;;;;;7.05;1.52;;;;;;;;;;5050912;28;20081;-83
2023/12/27 11:56:54;;;;;;;7.95;1.50;;;;;;;;;;5059186;28;20453;-83
2023/12/27 11:59:26;;;;;;;12.93;2.20;;;;;;;;;;5051182;28;20507;-83
2023/12/27 12:01:52;;;;;;;5.97;1.48;;;;;;;;;;5037511;28;20423;-82
2023/12/27 12:04:35;;;;;;;8.30;1.52;;;;;;;;;;5055219;28;20028;-83
2023/12/27 12:07:19;;;;;;;8.05;1.30;;;;;;;;;;5058410;28;20571;-84
2023/12/27 12:09:50;;;;;;;8.15;1.40;;;;;;;;;;5046124;28;20052;-83
2023/12/27 12:12:28;;;;;;;11.30;1.73;;;;;;;;;;5043158;28;20036;-83
2023/12/27 12:14:55;;;;;;;9.23;1.52;;;;;;;;;;5038210;28;20094;-83
2023/12/27 12:17:21;;;;;;;12.05;1.63;;;;;;;;;;5056481;28;20036;-84
2023/12/27 12:19:56;;;;;;;8.50;1.70;;;;;;;;;;5044983;28;20503;-85
2023/12/27 12:22:23;;;;;;;6.70;1.35;;;;;;;;;;5031025;28;20056;-83
2023/12/27 12:24:49;;;;;;;;;;;;;;;;;;5057604;28;20039;-83
2023/12/27 12:27:22;;;;;;;9.98;1.48;;;;;;;;;;5062193;28;19912;-82
2023/12/27 12:29:47;;;;;;;7.53;1.38;;;;;;;;;;5071049;28;20503;-82
2023/12/27 12:32:16;;;;;;;7.90;1.60;;;;;;;;;;5052511;28;20068;-82
2023/12/27 12:34:41;;;;;;;12.95;2.00;;;;;;;;;;5056411;28;20497;-82
2023/12/27 12:37:07;;;;;;;5.25;1.35;;;;;;;;;;5043121;28;20087;-83
2023/12/27 12:39:35;;;;;;;7.40;1.23;;;;;;;;;;5056832;28;20105;-82
2023/12/27 12:42:04;;;;;;;9.52;1.90;;;;;;;;;;5064232;28;20064;-82
2023/12/27 12:44:32;;;;;;;13.75;1.70;;;;;;;;;;5055859;28;20029;-83
2023/12/27 12:46:58;;;;;;;8.38;1.50;;;;;;;;;;5055934;28;20373;-82
2023/12/27 12:49:23;;;;;;;8.70;1.65;;;;;;;;;;5054262;28;20163;-82
2023/12/27 12:51:52;;;;;;;9.48;1.83;;;;;;;;;;5067276;28;20044;-82
2023/12/27 12:54:20;;;;;;;11.55;2.17;;;;;;;;;;5054456;28;20488;-82
2023/12/27 12:56:45;;;;;;;11.80;1.90;;;;;;;;;;5057044;28;20040;-82
2023/12/27 12:59:14;;;;;;;11.43;1.50;;;;;;;;;;5055800;28;20131;-83
2023/12/27 13:01:40;;;;;;;6.78;1.60;;;;;;;;;;5023560;28;20032;-84
2023/12/27 13:04:10;;;;;;;8.20;1.40;;;;;;;;;;5039875;28;20551;-82
2023/12/27 13:06:36;;;;;;;10.95;1.83;;;;;;;;;;5032986;28;20031;-82
2023/12/27 13:09:03;;;;;;;9.02;2.00;;;;;;;;;;5046072;28;20167;-82
2023/12/27 13:11:34;;;;;;;11.05;1.60;;;;;;;;;;5053853;28;21311;-82
2023/12/27 13:14:00;;;;;;;11.43;1.90;;;;;;;;;;5044300;28;20100;-82
2023/12/27 13:16:29;;;;;;;9.07;1.67;;;;;;;;;;5048015;28;20039;-82
2023/12/27 13:18:58;;;;;;;7.47;1.30;;;;;;;;;;5040287;28;20039;-82
2023/12/27 13:21:29;;;;;;;8.18;1.52;;;;;;;;;;5055779;28;20087;-78
2023/12/27 13:24:00;;;;;;;11.52;1.80;;;;;;;;;;5050588;28;20500;-78
2023/12/27 13:26:55;;;;;;;10.60;1.70;;;;;;;;;;5044327;28;20033;-78
2023/12/27 13:29:20;;;;;;;7.10;1.30;;;;;;;;;;5046482;28;20225;-79
2023/12/27 13:31:46;;;;;;;10.45;1.75;;;;;;;;;;5049701;28;20491;-80
2023/12/27 13:34:11;;;;;;;11.75;2.00;;;;;;;;;;5062000;28;20119;-79
2023/12/27 13:36:36;;;;;;;9.05;1.63;;;;;;;;;;5043189;28;20122;-80
2023/12/27 13:39:20;;;;;;;11.50;1.85;;;;;;;;;;5058578;28;20661;-80
2023/12/27 13:41:45;;;;;;;11.10;1.75;;;;;;;;;;5034938;28;20029;-80
2023/12/27 13:44:14;;;;;;;10.50;1.60;;;;;;;;;;5066778;28;20051;-81
2023/12/27 13:46:48;;;;;;;13.02;1.80;;;;;;;;;;5044804;28;20361;-79
2023/12/27 13:49:14;;;;;;;10.30;2.20;;;;;;;;;;5068949;28;20037;-82
2023/12/27 13:51:39;;;;;;;8.65;2.15;;;;;;;;;;5049161;28;20158;-81
2023/12/27 13:54:07;;;;;;;7.65;2.22;;;;;;;;;;5059445;28;20029;-78
2023/12/27 13:56:36;;;;;;;13.32;2.13;;;;;;;;;;5039044;28;20040;-78
2023/12/27 13:59:02;;;;;;;13.02;2.03;;;;;;;;;;5037801;28;20041;-78
2023/12/27 14:01:37;;;;;;;9.85;1.83;;;;;;;;;;5054964;28;20037;-80
2023/12/27 14:04:03;;;;;;;9.32;2.28;;;;;;;;;;5032463;28;20028;-79
2023/12/27 14:06:29;;;;;;;9.40;2.00;;;;;;;;;;5052128;28;20474;-78
2023/12/27 14:08:54;;;;;;;12.52;1.77;;;;;;;;;;5040106;28;20045;-79
2023/12/27 14:11:26;;;;;;;9.27;1.92;;;;;;;;;;5066888;28;20400;-79
2023/12/27 14:13:52;;;;;;;11.10;1.88;;;;;;;;;;5043420;28;20041;-79
2023/12/27 14:16:17;;;;;;;12.13;2.17;;;;;;;;;;5043841;28;20551;-81
2023/12/27 14:18:48;;;;;;;10.10;2.08;;;;;;;;;;5051667;28;20037;-79
2023/12/27 14:21:15;;;;;;;11.50;2.63;;;;;;;;;;5053519;28;20036;-79
2023/12/27 14:23:43;;;;;;;8.60;2.20;;;;;;;;;;5055462;28;20499;-79
2023/12/27 14:26:11;;;;;;;7.97;2.00;;;;;;;;;;5060718;28;20029;-80
2023/12/27 14:28:37;;;;;;;8.70;2.22;;;;;;;;;;5052310;28;20044;-79
2023/12/27 14:31:04;;;;;;;9.63;2.03;;;;;;;;;;5046213;28;20522;-80
2023/12/27 14:33:29;;;;;;;9.45;2.03;;;;;;;;;;5051717;28;20113;-80
2023/12/27 14:35:55;;;;;;;14.25;3.13;;;;;;;;;;5024108;28;20097;-79
2023/12/27 14:38:23;;;;;;;11.05;2.58;;;;;;;;;;5041296;28;20086;-80
2023/12/27 14:40:48;;;;;;;9.52;2.03;;;;;;;;;;5025203;28;20048;-81